Terminal Aerodrome Forecast
Issued by NWS Charleston, SC

Home | Current Version | Previous Version | Text Only | Print | Product List | Glossary On
Versions: 1 2 3 4 5 6 7 8 9 10 11 12 13
364
FTUS42 KCHS 112322
TAFSAV
TAF
KSAV 112322Z 1200/1224 VRB03KT P6SM FEW060
     FM120300 VRB03KT P6SM BKN060
     FM120900 VRB03KT P6SM SCT008 BKN012
     FM121600 25008KT P6SM SCT008 BKN018
     FM121900 28010KT P6SM SKC=

USA.gov is the U.S. government's official web portal to all federal, state and local government web resources and services.